This is the latest recevied weather packets stored in our database for station/object SQ9SMC-13. If no packets are shown the sender has not sent any weather packets the latest 10 day(s).
| Time | Temp. | Humidity | Pressure | Rain* | Wind** | Luminosity | Snow |
|---|---|---|---|---|---|---|---|
| 1777965302 | 23.33° C | 33% | 1012.2 hPa | 0 mm | - | 408 W/m² | - |
| 1777965003 | 22.22° C | 35% | 1012.3 hPa | 0 mm | - | 395 W/m² | - |
| 1777964703 | 22.22° C | 34% | 1012.3 hPa | 0 mm | - | 378 W/m² | - |
| 1777964403 | 22.22° C | 34% | 1012.4 hPa | 0 mm | - | 367 W/m² | - |
| 1777964106 | 22.22° C | 35% | 1012.3 hPa | 0 mm | - | 355 W/m² | - |
| 1777963802 | 22.22° C | 35% | 1012.4 hPa | 0 mm | - | 301 W/m² | - |
| 1777963503 | 22.22° C | 34% | 1012.4 hPa | 0 mm | - | 295 W/m² | - |
| 1777963203 | 21.67° C | 35% | 1012.3 hPa | 0 mm | - | 301 W/m² | - |
| 1777962903 | 21.67° C | 35% | 1012.4 hPa | 0 mm | - | 291 W/m² | - |
| 1777962604 | 21.67° C | 36% | 1012.6 hPa | 0 mm | - | 281 W/m² | - |
| 1777962303 | 21.67° C | 37% | 1012.5 hPa | 0 mm | - | 265 W/m² | - |
| 1777962003 | 21.11° C | 38% | 1012.6 hPa | 0 mm | - | 255 W/m² | - |
| 1777961703 | 20.56° C | 40% | 1012.7 hPa | 0 mm | - | 243 W/m² | - |
| 1777961402 | 20° C | 40% | 1012.7 hPa | 0 mm | - | 230 W/m² | - |
| 1777961105 | 20.56° C | 39% | 1012.7 hPa | 0 mm | - | 220 W/m² | - |
| 1777960803 | 20° C | 41% | 1012.6 hPa | 0 mm | - | 207 W/m² | - |
| 1777960503 | 19.44° C | 42% | 1012.9 hPa | 0 mm | - | 191 W/m² | - |
| 1777960204 | 19.44° C | 42% | 1012.8 hPa | 0 mm | - | 183 W/m² | - |
| 1777959904 | 18.89° C | 44% | 1012.7 hPa | 0 mm | - | 172 W/m² | - |
| 1777959604 | 18.89° C | 45% | 1012.7 hPa | 0 mm | - | 159 W/m² | - |
| 1777959304 | 17.78° C | 50% | 1012.8 hPa | 0 mm | - | 149 W/m² | - |
| 1777959002 | 17.22° C | 54% | 1012.6 hPa | 0 mm | - | 143 W/m² | - |
| 1777958704 | 16.11° C | 59% | 1012.9 hPa | 0 mm | - | 130 W/m² | - |
| 1777958403 | 15° C | 63% | 1012.8 hPa | 0 mm | - | 120 W/m² | - |
| 1777958104 | 14.44° C | 62% | 1012.7 hPa | 0 mm | - | 111 W/m² | - |
* Rain latest hour (hover to see other rain measurements)
** Current wind speed in m/s (hover to see current wind gust speed)